Time;durP1;ratioP1;P1;durP2;ratioP2;P2;SDS_P1;SDS_P2;PMS_P1;PMS_P2;Temp;Humidity;BMP_temperature;BMP_pressure;BME280_temperature;BME280_humidity;BME280_pressure;Samples;Min_cycle;Max_cycle;Signal;HPM_P1;HPM_P2
2021/08/03 00:00:00;;;;;;;7.92;5.80;;;;;;;14.67;82.39;94512.99;1700236;83;21165;-58
2021/08/03 00:02:27;;;;;;;17.75;6.83;;;;;;;14.58;82.53;94522.16;1693559;83;21175;-58
2021/08/03 00:04:57;;;;;;;20.23;7.83;;;;;;;14.53;82.88;94528.37;1701457;83;20998;-58
2021/08/03 00:07:25;;;;;;;9.25;5.17;;;;;;;14.49;83.49;94535.34;1701820;83;20970;-58
2021/08/03 00:09:52;;;;;;;8.88;6.25;;;;;;;14.43;83.49;94531.08;1693984;83;20958;-58
2021/08/03 00:12:19;;;;;;;10.85;5.80;;;;;;;14.40;83.61;94530.51;1698943;84;21143;-59
2021/08/03 00:14:49;;;;;;;7.45;5.28;;;;;;;14.41;84.29;94533.42;1705936;83;21494;-58
2021/08/03 00:17:18;;;;;;;6.08;4.85;;;;;;;14.39;84.52;94535.91;1692636;83;21076;-58
2021/08/03 00:19:46;;;;;;;9.25;5.42;;;;;;;14.34;84.78;94528.27;1704237;83;21029;-57
2021/08/03 00:22:13;;;;;;;12.80;4.95;;;;;;;14.33;84.99;94528.87;1704541;83;20981;-57
2021/08/03 00:24:40;;;;;;;7.58;5.08;;;;;;;14.35;85.21;94529.80;1702527;82;21151;-59
2021/08/03 00:27:09;;;;;;;5.95;4.97;;;;;;;14.38;85.44;94524.05;1703776;83;20990;-58
2021/08/03 00:29:36;;;;;;;8.98;4.80;;;;;;;14.43;85.49;94528.95;1702075;83;21029;-60
2021/08/03 00:32:05;;;;;;;7.42;4.45;;;;;;;14.45;85.15;94531.36;1706845;83;21065;-57
2021/08/03 00:34:36;;;;;;;8.53;5.30;;;;;;;14.44;84.81;94529.09;1698963;83;20993;-59
2021/08/03 00:37:06;;;;;;;11.03;5.20;;;;;;;14.40;84.84;94533.28;1681476;83;21143;-59
2021/08/03 00:39:36;;;;;;;11.18;5.87;;;;;;;14.36;85.13;94534.84;1710329;83;21093;-58
2021/08/03 00:42:04;;;;;;;7.22;6.15;;;;;;;14.35;85.48;94533.31;1708507;83;21564;-58
2021/08/03 00:44:45;;;;;;;11.70;7.78;;;;;;;14.35;85.84;94535.34;1693878;84;21443;-57
2021/08/03 00:47:14;;;;;;;15.05;6.95;;;;;;;14.39;86.21;94535.91;1695772;83;21615;-57
2021/08/03 00:49:43;;;;;;;10.70;7.28;;;;;;;14.37;86.73;94525.94;1698588;83;21800;-57
2021/08/03 00:52:13;;;;;;;9.55;7.20;;;;;;;14.39;87.12;94526.22;1701552;83;20942;-57
2021/08/03 00:54:42;;;;;;;5.80;5.05;;;;;;;14.43;87.50;94524.16;1692956;83;21003;-58
2021/08/03 00:57:10;;;;;;;5.37;4.87;;;;;;;14.47;87.57;94528.87;1690461;83;21485;-58
2021/08/03 00:59:37;;;;;;;8.30;4.92;;;;;;;14.45;87.10;94529.98;1701499;83;21470;-57
2021/08/03 01:02:06;;;;;;;7.80;4.50;;;;;;;14.43;86.72;94533.84;1703733;83;21040;-57
2021/08/03 01:04:34;;;;;;;6.17;4.80;;;;;;;14.43;86.39;94528.17;1691930;83;21691;-59
2021/08/03 01:07:27;;;;;;;9.90;5.17;;;;;;;14.41;86.32;94530.66;1700968;83;21478;-59
2021/08/03 01:10:33;;;;;;;9.70;5.67;;;;;;;14.40;86.23;94530.51;1694115;83;21545;-58
2021/08/03 01:13:43;;;;;;;5.80;4.90;;;;;;;14.38;86.18;94528.20;1701672;83;21066;-59
2021/08/03 01:16:22;;;;;;;6.80;5.50;;;;;;;14.38;86.53;94532.99;1695888;83;21097;-57
2021/08/03 01:19:19;;;;;;;9.40;5.75;;;;;;;14.39;86.66;94530.37;1698778;83;20942;-59
2021/08/03 01:21:57;;;;;;;6.85;6.05;;;;;;;14.44;86.92;94538.78;1693964;83;20993;-59
2021/08/03 01:24:52;;;;;;;11.53;6.20;;;;;;;14.48;86.86;94527.63;1685231;83;20974;-59
2021/08/03 01:28:05;;;;;;;18.85;7.12;;;;;;;14.53;87.21;94525.61;1701528;83;21112;-59
2021/08/03 01:30:34;;;;;;;7.67;5.85;;;;;;;14.66;87.18;94533.62;1699960;83;21156;-58
2021/08/03 01:33:02;;;;;;;9.48;6.15;;;;;;;14.74;86.38;94527.82;1701544;83;21441;-59
2021/08/03 01:35:31;;;;;;;12.03;6.40;;;;;;;14.73;85.99;94528.45;1703569;83;21084;-56
2021/08/03 01:37:59;;;;;;;7.25;5.85;;;;;;;14.63;86.04;94532.56;1698210;83;20982;-59
2021/08/03 01:40:27;;;;;;;10.80;7.05;;;;;;;14.59;86.41;94528.47;1701277;83;21045;-58
2021/08/03 01:42:54;;;;;;;10.53;6.78;;;;;;;14.51;86.57;94525.32;1699302;83;21116;-58
2021/08/03 01:45:22;;;;;;;7.40;6.30;;;;;;;14.45;86.79;94518.91;1701494;84;20995;-59
2021/08/03 01:47:51;;;;;;;6.20;5.33;;;;;;;14.44;86.98;94522.92;1685178;83;20965;-58
2021/08/03 01:50:20;;;;;;;6.55;5.70;;;;;;;14.47;87.09;94530.27;1699520;82;21477;-58
2021/08/03 01:52:49;;;;;;;8.20;5.92;;;;;;;14.42;86.89;94528.03;1704218;83;21021;-59
2021/08/03 01:55:20;;;;;;;11.90;5.92;;;;;;;14.32;87.09;94533.52;1701691;83;21212;-58
2021/08/03 01:57:49;;;;;;;5.78;4.80;;;;;;;14.28;87.42;94536.47;1701194;83;20998;-58
2021/08/03 02:00:17;;;;;;;9.90;5.47;;;;;;;14.29;87.50;94538.60;1704614;83;21556;-58
2021/08/03 02:02:44;;;;;;;7.70;6.72;;;;;;;14.27;87.61;94541.08;1704090;82;20991;-58
2021/08/03 02:05:11;;;;;;;7.05;6.20;;;;;;;14.24;87.67;94536.50;1683978;84;21013;-58
2021/08/03 02:07:41;;;;;;;8.88;5.75;;;;;;;14.22;87.88;94543.14;1699322;83;21114;-58
2021/08/03 02:10:10;;;;;;;11.73;5.55;;;;;;;14.23;88.04;94546.83;1701041;83;20986;-58
2021/08/03 02:12:37;;;;;;;10.25;5.72;;;;;;;14.26;88.15;94552.01;1704178;83;21018;-59
2021/08/03 02:15:07;;;;;;;5.87;5.15;;;;;;;14.31;88.15;94548.57;1702311;83;21473;-59
2021/08/03 02:17:35;;;;;;;9.08;6.20;;;;;;;14.36;88.11;94550.06;1704510;83;21502;-58
2021/08/03 02:20:14;;;;;;;10.10;6.47;;;;;;;14.41;87.85;94547.27;1703335;82;21863;-58
2021/08/03 02:22:45;;;;;;;6.87;5.08;;;;;;;14.42;87.44;94548.18;1702816;83;21041;-58
2021/08/03 02:25:14;;;;;;;5.60;5.10;;;;;;;14.40;87.19;94550.63;1703634;83;21615;-59
2021/08/03 02:27:41;;;;;;;11.30;5.60;;;;;;;14.36;87.00;94553.47;1696694;83;21105;-58
2021/08/03 02:30:10;;;;;;;8.43;6.55;;;;;;;14.33;87.15;94553.04;1705173;83;20966;-58
2021/08/03 02:33:13;;;;;;;6.58;5.12;;;;;;;14.29;87.08;94549.67;1712252;83;21170;-58
2021/08/03 02:36:04;;;;;;;6.85;5.20;;;;;;;14.26;87.32;94553.39;1705804;83;20954;-58
2021/08/03 02:38:34;;;;;;;7.60;5.22;;;;;;;14.26;87.52;94561.70;1701805;83;21203;-58
2021/08/03 02:41:02;;;;;;;8.30;5.42;;;;;;;14.29;87.41;94555.20;1701093;83;20969;-58
2021/08/03 02:43:33;;;;;;;6.40;5.28;;;;;;;14.28;86.69;94558.61;1699266;83;20947;-58
2021/08/03 02:46:02;;;;;;;5.55;4.97;;;;;;;14.27;86.96;94561.23;1700578;83;21193;-58
2021/08/03 02:48:31;;;;;;;6.42;5.72;;;;;;;14.25;87.01;94558.78;1703403;83;21053;-59
2021/08/03 02:50:58;;;;;;;7.42;5.45;;;;;;;14.23;87.20;94559.87;1705145;83;21512;-58
2021/08/03 02:53:45;;;;;;;4.83;4.12;;;;;;;14.24;87.11;94569.11;1697054;83;20959;-58
2021/08/03 02:56:16;;;;;;;5.10;4.60;;;;;;;14.23;86.98;94576.48;1693965;83;21077;-57
2021/08/03 02:59:06;;;;;;;7.03;5.40;;;;;;;14.14;86.70;94576.55;1696585;84;21943;-58
2021/08/03 03:01:37;;;;;;;9.23;5.10;;;;;;;14.03;86.71;94574.30;1699346;83;21053;-59
2021/08/03 03:04:24;;;;;;;5.62;4.53;;;;;;;13.93;87.06;94581.16;1679633;84;21025;-58
2021/08/03 03:06:58;;;;;;;7.33;5.20;;;;;;;13.88;87.34;94590.72;1696476;84;21105;-59
2021/08/03 03:09:27;;;;;;;6.47;4.80;;;;;;;13.79;87.47;94590.79;1701173;83;21100;-59
2021/08/03 03:11:53;;;;;;;17.30;5.87;;;;;;;13.76;87.94;94600.00;1698447;84;21153;-59
2021/08/03 03:14:22;;;;;;;8.35;5.22;;;;;;;13.80;88.32;94597.84;1700573;83;20967;-59
2021/08/03 03:16:51;;;;;;;8.38;5.92;;;;;;;13.84;88.37;94601.19;1692327;83;21010;-59
2021/08/03 03:19:18;;;;;;;6.78;5.55;;;;;;;13.87;88.25;94599.64;1698035;83;21006;-59
2021/08/03 03:21:46;;;;;;;6.00;5.40;;;;;;;13.90;88.07;94605.61;1702484;84;21568;-59
2021/08/03 03:24:14;;;;;;;10.50;5.05;;;;;;;13.94;87.79;94609.56;1702888;83;21127;-58
2021/08/03 03:26:43;;;;;;;7.45;5.50;;;;;;;13.96;87.80;94612.64;1700242;83;20970;-59
2021/08/03 03:29:12;;;;;;;5.40;4.90;;;;;;;14.02;87.82;94618.41;1685130;83;21445;-59
2021/08/03 03:31:40;;;;;;;5.92;5.33;;;;;;;14.04;87.67;94619.34;1704194;83;21132;-59
2021/08/03 03:34:08;;;;;;;5.28;4.83;;;;;;;14.04;87.58;94622.10;1703368;83;21515;-60
2021/08/03 03:36:36;;;;;;;6.47;4.50;;;;;;;14.05;87.56;94634.70;1703643;84;21589;-58
2021/08/03 03:39:05;;;;;;;7.00;4.40;;;;;;;14.10;87.90;94636.80;1699978;84;20962;-59
2021/08/03 03:41:33;;;;;;;5.28;4.78;;;;;;;14.15;87.73;94636.92;1700203;84;21013;-59
2021/08/03 03:44:00;;;;;;;7.97;5.08;;;;;;;14.18;87.50;94636.00;1706961;83;21024;-60
2021/08/03 03:46:36;;;;;;;4.40;4.00;;;;;;;14.22;87.43;94633.06;1696669;83;21017;-59
2021/08/03 03:49:11;;;;;;;4.50;4.10;;;;;;;14.30;87.20;94636.98;1694486;83;21194;-58
2021/08/03 03:51:42;;;;;;;5.15;4.65;;;;;;;14.35;86.83;94636.35;1704458;83;21516;-57
2021/08/03 03:54:13;;;;;;;8.38;5.28;;;;;;;14.41;86.57;94644.13;1705302;83;21072;-57
2021/08/03 03:56:45;;;;;;;5.73;4.43;;;;;;;14.41;86.19;94642.75;1702704;83;20971;-58
2021/08/03 03:59:12;;;;;;;4.90;4.40;;;;;;;14.40;86.04;94644.73;1705904;83;20974;-58
2021/08/03 04:01:38;;;;;;;6.60;4.00;;;;;;;14.40;85.89;94643.98;1695050;84;21589;-57
2021/08/03 04:04:09;;;;;;;10.32;4.25;;;;;;;14.41;85.91;94651.05;1702080;84;21049;-58
2021/08/03 04:06:36;;;;;;;11.15;4.70;;;;;;;14.40;85.65;94643.98;1702234;84;21105;-59
2021/08/03 04:09:03;;;;;;;6.45;5.25;;;;;;;14.39;85.52;94648.00;1682664;84;21010;-59
2021/08/03 04:11:32;;;;;;;7.35;5.00;;;;;;;14.34;85.50;94648.66;1696341;84;21005;-59
2021/08/03 04:14:00;;;;;;;10.23;6.60;;;;;;;14.33;85.48;94652.67;1705629;84;21948;-59
2021/08/03 04:16:30;;;;;;;15.88;7.05;;;;;;;14.32;85.30;94648.38;1701894;84;21605;-58
2021/08/03 04:18:57;;;;;;;8.15;5.28;;;;;;;14.35;85.56;94650.19;1690916;83;20998;-58
2021/08/03 04:21:24;;;;;;;9.85;5.22;;;;;;;14.40;85.51;94657.20;1699987;83;21022;-59
2021/08/03 04:23:51;;;;;;;11.60;4.85;;;;;;;14.39;85.37;94649.38;1702397;83;21576;-58
2021/08/03 04:26:17;;;;;;;10.53;5.00;;;;;;;14.39;85.51;94653.53;1696410;83;21196;-58
2021/08/03 04:28:44;;;;;;;7.50;4.92;;;;;;;14.43;85.53;94658.27;1700391;83;20986;-59
2021/08/03 04:31:11;;;;;;;6.10;5.25;;;;;;;14.43;85.52;94654.25;1697610;83;20982;-59
2021/08/03 04:33:39;;;;;;;11.43;5.65;;;;;;;14.43;85.28;94655.49;1699342;83;21538;-59
2021/08/03 04:36:06;;;;;;;7.25;5.28;;;;;;;14.44;85.30;94655.78;1700054;83;21040;-57
2021/08/03 04:38:33;;;;;;;7.50;5.47;;;;;;;14.45;85.12;94657.31;1703011;83;21174;-59
2021/08/03 04:40:59;;;;;;;15.03;7.47;;;;;;;14.48;85.10;94654.97;1704155;83;21042;-59
2021/08/03 04:43:27;;;;;;;20.15;8.98;;;;;;;14.53;85.05;94664.63;1705767;83;20955;-59
2021/08/03 04:45:55;;;;;;;27.27;7.42;;;;;;;14.56;85.10;94660.30;1701717;84;20935;-59
2021/08/03 04:48:22;;;;;;;13.10;6.05;;;;;;;14.62;85.02;94661.16;1703685;83;21252;-59
2021/08/03 04:50:50;;;;;;;8.68;6.53;;;;;;;14.64;84.70;94657.30;1681264;83;39609;-58
2021/08/03 04:53:17;;;;;;;7.28;5.85;;;;;;;14.63;84.67;94655.77;1680695;83;21070;-59
2021/08/03 04:55:43;;;;;;;7.15;5.53;;;;;;;14.64;84.58;94660.06;1698826;83;21088;-59
2021/08/03 04:58:10;;;;;;;8.53;6.00;;;;;;;14.64;84.51;94662.84;1707004;83;20973;-58
2021/08/03 05:00:37;;;;;;;7.95;5.00;;;;;;;14.69;84.57;94664.97;1705807;83;21066;-58
2021/08/03 05:03:04;;;;;;;7.10;4.90;;;;;;;14.80;84.45;94669.95;1698466;83;21146;-58
2021/08/03 05:05:31;;;;;;;14.90;5.47;;;;;;;14.90;84.12;94671.38;1693743;82;21303;-58
2021/08/03 05:07:59;;;;;;;9.63;4.92;;;;;;;15.02;84.08;94675.25;1690213;83;21010;-59
2021/08/03 05:10:28;;;;;;;6.45;4.90;;;;;;;15.14;83.72;94678.36;1708111;83;21129;-59
2021/08/03 05:12:56;;;;;;;6.15;5.55;;;;;;;15.19;83.11;94678.32;1674584;85;20972;-58
2021/08/03 05:15:25;;;;;;;7.47;5.87;;;;;;;15.19;82.98;94671.39;1681792;83;21427;-59
2021/08/03 05:17:52;;;;;;;8.33;5.22;;;;;;;15.26;82.92;94678.70;1681863;83;21042;-58
2021/08/03 05:20:19;;;;;;;12.90;9.83;;;;;;;15.36;82.72;94684.30;1687907;84;21013;-58
2021/08/03 05:22:46;;;;;;;12.70;6.12;;;;;;;15.44;82.57;94678.53;1693233;82;20971;-58
2021/08/03 05:25:13;;;;;;;10.35;6.05;;;;;;;15.52;82.59;94682.43;1697547;83;20986;-60
2021/08/03 05:27:40;;;;;;;9.88;5.70;;;;;;;15.63;82.16;94677.67;1707460;83;21287;-58
2021/08/03 05:30:09;;;;;;;7.87;4.95;;;;;;;15.64;81.58;94671.66;1691646;83;21010;-59
2021/08/03 05:32:36;;;;;;;9.88;6.00;;;;;;;15.59;81.46;94677.12;1693017;83;21490;-59
2021/08/03 05:35:05;;;;;;;6.37;4.72;;;;;;;15.60;81.63;94684.19;1707796;82;21058;-59
2021/08/03 05:37:32;;;;;;;11.75;4.60;;;;;;;15.65;81.33;94688.44;1690095;83;21073;-59
2021/08/03 05:40:02;;;;;;;5.83;5.28;;;;;;;15.67;80.99;94680.41;1688442;84;21121;-59
2021/08/03 05:42:27;;;;;;;9.15;5.00;;;;;;;15.68;81.08;94692.24;1678639;85;21083;-60
2021/08/03 05:44:53;;;;;;;9.18;4.67;;;;;;;15.71;81.37;94681.59;1676947;84;21037;-60
2021/08/03 05:47:20;;;;;;;5.92;4.70;;;;;;;15.77;81.47;94683.19;1683154;84;21066;-60
2021/08/03 05:49:47;;;;;;;7.80;5.53;;;;;;;15.90;81.54;94687.80;1693034;83;21046;-60
2021/08/03 05:52:14;;;;;;;5.28;4.78;;;;;;;16.11;81.10;94690.00;1700364;82;21636;-60
2021/08/03 05:54:41;;;;;;;12.58;5.15;;;;;;;16.32;80.70;94690.91;1717713;82;21038;-60
2021/08/03 05:57:09;;;;;;;4.90;4.37;;;;;;;16.54;80.04;94682.27;1711772;82;20991;-59
2021/08/03 05:59:36;;;;;;;4.40;4.00;;;;;;;16.71;79.06;94686.00;1717549;81;21525;-59
2021/08/03 06:02:03;;;;;;;8.48;4.97;;;;;;;16.73;78.66;94684.89;1696439;82;21073;-61
2021/08/03 06:04:30;;;;;;;4.15;3.75;;;;;;;16.76;78.67;94687.33;1699404;83;21184;-61
2021/08/03 06:06:56;;;;;;;5.58;4.28;;;;;;;16.83;78.37;94691.06;1706322;81;21475;-60
2021/08/03 06:09:25;;;;;;;7.65;4.65;;;;;;;16.87;78.11;94690.98;1707911;82;21378;-64
2021/08/03 06:11:53;;;;;;;3.80;3.27;;;;;;;16.98;77.84;94687.56;1716386;82;20979;-65
2021/08/03 06:14:39;;;;;;;7.25;3.40;;;;;;;17.05;77.29;94689.90;1710443;82;21651;-65
2021/08/03 06:17:09;;;;;;;7.42;4.22;;;;;;;17.12;76.91;94689.48;1696258;83;21880;-70
2021/08/03 06:19:46;;;;;;;4.45;3.92;;;;;;;17.19;75.93;94687.65;1688331;82;21105;-62
2021/08/03 06:22:14;;;;;;;4.87;4.05;;;;;;;17.20;75.87;94689.17;1697476;82;22344;-71
2021/08/03 06:24:42;;;;;;;6.00;4.20;;;;;;;17.18;76.47;94680.56;1691677;82;21025;-64
2021/08/03 06:27:12;;;;;;;11.53;4.08;;;;;;;17.26;76.54;94688.62;1696804;82;21599;-68
2021/08/03 06:29:40;;;;;;;5.00;4.12;;;;;;;17.36;76.21;94695.55;1669864;82;21128;-69
2021/08/03 06:32:08;;;;;;;5.40;4.17;;;;;;;17.46;75.73;94696.92;1702261;82;21061;-66
2021/08/03 06:34:37;;;;;;;6.83;3.95;;;;;;;17.59;75.34;94693.09;1699846;82;21566;-69
2021/08/03 06:37:06;;;;;;;8.60;4.33;;;;;;;17.67;74.46;94690.02;1662004;83;21403;-70
2021/08/03 06:39:35;;;;;;;11.43;4.58;;;;;;;17.68;74.23;94683.94;1695840;82;21075;-61
2021/08/03 06:42:29;;;;;;;5.95;4.30;;;;;;;17.67;74.70;94694.19;1717411;82;21628;-63
2021/08/03 06:45:06;;;;;;;11.18;5.42;;;;;;;17.75;74.93;94686.91;1681674;81;21605;-61
2021/08/03 06:47:44;;;;;;;7.42;4.28;;;;;;;17.84;75.15;94685.34;1687294;82;21545;-61
2021/08/03 06:50:13;;;;;;;7.65;4.70;;;;;;;17.93;75.02;94679.56;1699607;82;21156;-63
2021/08/03 06:52:40;;;;;;;4.45;4.05;;;;;;;18.07;75.06;94680.05;1698450;82;21109;-62
2021/08/03 06:55:11;;;;;;;7.92;4.80;;;;;;;18.18;73.82;94668.98;1697045;81;21915;-63
2021/08/03 06:57:41;;;;;;;8.70;6.65;;;;;;;18.27;73.73;94675.14;1706388;82;21057;-64
2021/08/03 07:00:10;;;;;;;9.00;5.97;;;;;;;18.40;73.64;94677.62;1718450;82;21063;-66
2021/08/03 07:02:44;;;;;;;8.93;6.25;;;;;;;18.50;73.12;94685.88;1712099;82;21061;-62
2021/08/03 07:05:27;;;;;;;11.65;6.78;;;;;;;18.56;73.03;94676.94;1697181;82;21122;-62
2021/08/03 07:07:58;;;;;;;11.88;7.42;;;;;;;18.60;73.11;94678.84;1699466;82;21162;-60
2021/08/03 07:10:26;;;;;;;12.33;8.50;;;;;;;18.72;72.99;94681.04;1710602;82;21116;-60
2021/08/03 07:12:56;;;;;;;13.45;8.40;;;;;;;18.80;72.79;94673.73;1705890;81;21163;-62
2021/08/03 07:15:26;;;;;;;14.33;8.10;;;;;;;18.84;72.82;94675.00;1700504;81;21245;-61
2021/08/03 07:17:53;;;;;;;13.18;8.93;;;;;;;18.91;72.94;94674.53;1711815;81;21143;-66
2021/08/03 07:20:21;;;;;;;17.20;8.75;;;;;;;18.94;72.81;94677.70;1708328;81;21541;-69
2021/08/03 07:22:49;;;;;;;16.73;8.35;;;;;;;19.00;72.86;94670.75;1695134;82;21173;-68
2021/08/03 07:25:16;;;;;;;17.37;8.05;;;;;;;19.15;72.92;94671.30;1692224;82;21158;-69
2021/08/03 07:27:45;;;;;;;12.35;6.92;;;;;;;19.32;72.64;94663.72;1697977;81;21091;-70
2021/08/03 07:30:13;;;;;;;11.45;8.18;;;;;;;19.47;72.00;94660.84;1716492;82;21554;-71
2021/08/03 07:32:40;;;;;;;11.55;8.15;;;;;;;19.60;71.95;94659.69;1695692;82;21164;-69
2021/08/03 07:35:08;;;;;;;17.92;7.22;;;;;;;19.70;71.31;94657.43;1705444;81;21548;-62
2021/08/03 07:37:35;;;;;;;13.32;7.85;;;;;;;19.82;71.12;94653.34;1697177;82;21107;-69
2021/08/03 07:40:04;;;;;;;13.25;8.08;;;;;;;19.98;70.36;94649.16;1685712;82;21112;-66
2021/08/03 07:42:31;;;;;;;10.58;7.50;;;;;;;20.12;70.34;94652.95;1686038;82;21194;-69
2021/08/03 07:44:58;;;;;;;11.20;7.30;;;;;;;20.25;69.68;94653.94;1689962;82;21174;-67
2021/08/03 07:47:26;;;;;;;16.37;9.05;;;;;;;20.38;69.09;94649.98;1695708;82;21073;-66
2021/08/03 07:49:53;;;;;;;15.40;7.20;;;;;;;20.52;69.00;94653.11;1704822;82;21045;-62
2021/08/03 07:52:20;;;;;;;10.30;6.42;;;;;;;20.67;68.22;94647.32;1705074;81;21073;-63
2021/08/03 07:54:48;;;;;;;11.25;7.30;;;;;;;20.73;66.85;94643.11;1727219;81;20981;-61
2021/08/03 07:57:16;;;;;;;11.60;7.00;;;;;;;20.77;66.45;94644.99;1707940;81;21150;-61
2021/08/03 07:59:42;;;;;;;5.30;4.72;;;;;;;20.83;66.05;94644.32;1709543;82;21122;-61
2021/08/03 08:02:09;;;;;;;9.43;6.25;;;;;;;20.89;65.18;94643.70;1716061;82;21060;-64
2021/08/03 08:04:36;;;;;;;7.55;5.05;;;;;;;20.95;65.29;94642.37;1696218;82;21081;-62
2021/08/03 08:07:03;;;;;;;8.85;4.90;;;;;;;21.04;65.46;94642.09;1700618;82;21093;-59
2021/08/03 08:09:30;;;;;;;8.33;4.90;;;;;;;21.15;65.44;94639.86;1717260;82;21209;-62
2021/08/03 08:11:57;;;;;;;5.83;4.45;;;;;;;21.32;65.98;94636.31;1699837;82;21025;-63
2021/08/03 08:14:23;;;;;;;5.10;4.03;;;;;;;21.49;65.59;94641.16;1709629;82;21077;-62
2021/08/03 08:16:50;;;;;;;7.10;4.35;;;;;;;21.65;64.26;94638.25;1712635;82;22180;-64
2021/08/03 08:19:19;;;;;;;5.28;4.10;;;;;;;21.81;63.84;94635.20;1704754;82;21601;-61
2021/08/03 08:21:45;;;;;;;7.12;4.40;;;;;;;21.93;61.40;94627.58;1705409;82;21139;-63
2021/08/03 08:24:13;;;;;;;4.70;3.77;;;;;;;22.04;61.20;94625.42;1720296;82;21125;-64
2021/08/03 08:26:40;;;;;;;6.50;3.85;;;;;;;22.15;59.96;94620.34;1686677;82;20986;-62
2021/08/03 08:29:08;;;;;;;4.60;3.87;;;;;;;22.20;59.11;94618.89;1701837;82;20974;-60
2021/08/03 08:31:34;;;;;;;7.83;4.33;;;;;;;22.26;58.45;94618.18;1712181;82;21059;-61
2021/08/03 08:34:01;;;;;;;6.60;3.70;;;;;;;22.31;59.15;94611.75;1708010;82;21914;-58
2021/08/03 08:36:28;;;;;;;9.18;3.62;;;;;;;22.40;59.01;94614.24;1713058;82;21060;-64
2021/08/03 08:38:56;;;;;;;4.00;3.22;;;;;;;22.54;58.40;94616.50;1712093;81;21608;-62
2021/08/03 08:41:23;;;;;;;6.05;3.77;;;;;;;22.68;57.63;94609.05;1701519;82;21073;-63
2021/08/03 08:43:49;;;;;;;6.05;3.42;;;;;;;22.81;56.19;94609.80;1681479;84;21038;-62
2021/08/03 08:46:16;;;;;;;6.72;3.42;;;;;;;22.88;55.74;94611.34;1643114;85;21982;-65
2021/08/03 08:48:45;;;;;;;5.10;2.47;;;;;;;22.96;55.37;94608.05;1656277;84;21070;-61
2021/08/03 08:51:11;;;;;;;4.20;3.40;;;;;;;23.03;53.95;94607.44;1642042;85;21184;-65
2021/08/03 08:53:39;;;;;;;4.12;3.05;;;;;;;23.11;55.23;94603.38;1636091;85;21073;-63
2021/08/03 08:56:06;;;;;;;2.77;2.52;;;;;;;23.24;54.36;94604.22;1651324;84;21053;-64
2021/08/03 08:58:35;;;;;;;4.15;2.80;;;;;;;23.37;52.92;94604.30;1691125;83;21200;-62
2021/08/03 09:01:03;;;;;;;2.30;2.10;;;;;;;23.47;51.76;94604.02;1645764;84;21137;-62
2021/08/03 09:03:30;;;;;;;2.47;2.27;;;;;;;23.56;48.23;94609.89;1641488;84;21542;-62
2021/08/03 09:06:02;;;;;;;3.22;2.20;;;;;;;23.62;47.96;94600.08;1647731;85;21188;-63
2021/08/03 09:08:39;;;;;;;7.70;2.43;;;;;;;23.63;47.84;94597.38;1652062;85;21061;-63
2021/08/03 09:11:12;;;;;;;2.95;2.22;;;;;;;23.70;49.48;94592.53;1647263;84;21172;-60
2021/08/03 09:14:04;;;;;;;2.95;2.55;;;;;;;23.87;50.58;94593.67;1636420;85;21070;-62
2021/08/03 09:16:47;;;;;;;4.40;2.50;;;;;;;24.07;49.84;94593.19;1636463;84;21053;-62
2021/08/03 09:19:41;;;;;;;5.90;2.47;;;;;;;24.32;49.14;94590.92;1653173;84;21036;-66
2021/08/03 09:22:18;;;;;;;2.95;2.70;;;;;;;24.56;47.76;94590.75;1636607;84;21166;-61
2021/08/03 09:24:48;;;;;;;8.78;2.72;;;;;;;24.67;47.13;94590.52;1644068;85;21217;-66
2021/08/03 09:27:37;;;;;;;5.00;2.10;;;;;;;24.70;48.31;94592.23;1663404;84;21232;-63
2021/08/03 09:30:07;;;;;;;11.00;3.50;;;;;;;24.79;46.73;94586.18;1670529;83;21538;-59
2021/08/03 09:32:36;;;;;;;8.08;2.72;;;;;;;24.87;47.62;94584.97;1660229;83;21075;-64
2021/08/03 09:35:15;;;;;;;3.80;2.52;;;;;;;25.02;46.90;94584.39;1699878;82;21045;-63
2021/08/03 09:37:43;;;;;;;3.45;2.10;;;;;;;25.18;47.98;94585.48;1705300;82;21127;-62
2021/08/03 09:40:33;;;;;;;4.20;1.72;;;;;;;25.32;45.73;94574.25;1712216;81;21477;-62
2021/08/03 09:43:07;;;;;;;3.30;2.00;;;;;;;25.44;46.01;94571.92;1713452;81;21018;-63
2021/08/03 09:45:44;;;;;;;2.90;2.00;;;;;;;25.52;43.34;94571.37;1704341;82;21045;-62
2021/08/03 09:48:17;;;;;;;2.90;1.60;;;;;;;25.58;43.27;94571.98;1693797;82;21139;-62
2021/08/03 09:51:05;;;;;;;1.80;1.70;;;;;;;25.63;42.28;94574.67;1717728;82;21311;-61
2021/08/03 09:53:48;;;;;;;3.35;2.08;;;;;;;25.58;41.79;94562.89;1706730;82;20938;-61
2021/08/03 09:56:20;;;;;;;6.12;2.17;;;;;;;25.60;43.39;94561.68;1708959;82;21021;-61
2021/08/03 09:58:54;;;;;;;;;;;;;;;25.74;43.33;94559.55;1707670;82;21151;-62
2021/08/03 10:01:31;;;;;;;2.52;1.95;;;;;;;25.89;43.72;94555.48;1694460;82;20150;-62
2021/08/03 10:04:09;;;;;;;6.67;2.20;;;;;;;26.02;42.50;94551.91;1703497;82;21167;-63
2021/08/03 10:06:39;;;;;;;14.60;3.45;;;;;;;26.12;44.54;94555.09;1716857;82;21055;-63
2021/08/03 10:09:09;;;;;;;5.35;2.80;;;;;;;26.24;44.76;94546.44;1700971;82;21560;-64
2021/08/03 10:11:36;;;;;;;6.50;2.60;;;;;;;26.38;43.95;94552.09;1715298;82;21804;-63
2021/08/03 10:14:05;;;;;;;2.33;2.02;;;;;;;26.49;44.38;94547.56;1712464;82;21168;-62
2021/08/03 10:16:31;;;;;;;4.75;2.20;;;;;;;26.61;43.98;94549.41;1701459;81;21160;-62
2021/08/03 10:19:01;;;;;;;9.35;7.90;;;;;;;26.75;45.37;94545.16;1703372;82;21136;-62
2021/08/03 10:21:41;;;;;;;4.85;2.70;;;;;;;26.94;42.52;94539.32;1704926;82;21006;-62
2021/08/03 10:24:17;;;;;;;3.55;2.40;;;;;;;27.14;43.28;94542.71;1704083;82;21445;-61
2021/08/03 10:27:10;;;;;;;2.40;2.00;;;;;;;27.37;42.95;94539.28;1719772;82;21043;-62
2021/08/03 10:29:52;;;;;;;8.95;3.10;;;;;;;27.55;41.01;94547.34;1706147;82;21190;-61
2021/08/03 10:32:39;;;;;;;6.17;2.33;;;;;;;27.69;41.67;94550.07;1707865;82;21509;-63
2021/08/03 10:35:15;;;;;;;5.17;3.20;;;;;;;27.79;40.99;94545.41;1696852;82;21096;-63
2021/08/03 10:38:05;;;;;;;5.72;2.12;;;;;;;27.99;40.89;94549.45;1712015;82;21184;-64
2021/08/03 10:40:50;;;;;;;3.55;1.77;;;;;;;28.16;41.01;94549.64;1705735;82;21095;-65
2021/08/03 10:43:36;;;;;;;1.67;1.57;;;;;;;28.39;40.94;94549.01;1711714;82;21143;-63
2021/08/03 10:46:17;;;;;;;4.15;1.77;;;;;;;28.50;38.98;94540.09;1705604;81;21029;-63
2021/08/03 10:48:46;;;;;;;5.50;1.90;;;;;;;28.47;38.74;94539.83;1703850;81;21057;-63
2021/08/03 10:51:23;;;;;;;3.67;1.90;;;;;;;28.44;38.82;94541.70;1708203;82;21490;-63
2021/08/03 10:54:09;;;;;;;8.30;2.40;;;;;;;28.56;38.31;94533.59;1715360;82;21180;-63
2021/08/03 10:57:03;;;;;;;6.90;2.17;;;;;;;28.86;38.08;94541.98;1694213;82;21163;-63
2021/08/03 10:59:40;;;;;;;6.03;1.90;;;;;;;28.93;37.94;94539.83;1697433;82;21041;-64
2021/08/03 11:02:25;;;;;;;5.25;1.70;;;;;;;29.21;37.03;94542.34;1718522;82;21128;-64
2021/08/03 11:04:56;;;;;;;4.00;1.95;;;;;;;29.17;38.27;94544.81;1689489;82;21081;-61
2021/08/03 11:07:31;;;;;;;5.97;4.78;;;;;;;29.13;37.40;94545.88;1705817;82;21474;-76
2021/08/03 11:10:02;;;;;;;2.22;1.87;;;;;;;29.05;36.38;94547.98;1699129;81;21794;-73
2021/08/03 11:12:46;;;;;;;2.92;1.87;;;;;;;28.52;36.52;94536.03;1689599;82;21925;-71
2021/08/03 11:15:33;;;;;;;3.37;2.83;;;;;;;28.08;38.15;94537.59;1706874;82;21033;-72
2021/08/03 11:18:10;;;;;;;6.95;2.25;;;;;;;27.77;39.44;94543.14;1697822;82;21149;-69
2021/08/03 11:20:45;;;;;;;2.92;1.70;;;;;;;27.51;40.68;94537.81;1724075;82;21475;-70
2021/08/03 11:23:16;;;;;;;2.33;1.60;;;;;;;27.36;40.25;94542.02;1680130;83;21177;-75
2021/08/03 11:25:47;;;;;;;1.75;1.65;;;;;;;27.49;39.86;94535.44;1646412;85;21011;-66
2021/08/03 11:28:21;;;;;;;2.35;1.52;;;;;;;27.42;39.65;94538.34;1674164;84;21205;-62
2021/08/03 11:30:50;;;;;;;3.58;2.08;;;;;;;27.37;38.91;94530.81;1649448;84;21586;-61
2021/08/03 11:33:19;;;;;;;3.90;1.80;;;;;;;27.10;39.18;94543.75;1635807;84;21131;-62
2021/08/03 11:35:46;;;;;;;6.05;2.33;;;;;;;26.77;39.66;94539.06;1639666;85;21198;-62
2021/08/03 11:38:19;;;;;;;6.75;2.30;;;;;;;26.55;40.88;94536.89;1637114;85;21014;-73
2021/08/03 11:40:46;;;;;;;5.58;2.17;;;;;;;26.58;40.80;94536.41;1650831;85;20988;-62
2021/08/03 11:43:13;;;;;;;8.63;1.80;;;;;;;26.63;40.92;94532.02;1648736;85;21117;-62
2021/08/03 11:45:40;;;;;;;1.90;1.60;;;;;;;26.65;41.79;94530.06;1642979;85;21227;-64
2021/08/03 11:48:23;;;;;;;5.28;2.47;;;;;;;26.68;42.54;94526.13;1629817;85;21166;-64
2021/08/03 11:50:50;;;;;;;4.78;3.22;;;;;;;26.89;43.58;94529.59;1675640;83;21136;-76